sensor_id;sensor_type;location;lat;lon;timestamp;pressure;altitude;pressure_sealevel;temperature;humidity
49063;BME280;34876;51.464;-0.150;2023-02-04T00:00:32;103510.81;;;17.46;44.05
49063;BME280;34876;51.464;-0.150;2023-02-04T00:03:01;103508.17;;;17.47;43.98
49063;BME280;34876;51.464;-0.150;2023-02-04T00:12:08;103507.96;;;17.46;44.01
49063;BME280;34876;51.464;-0.150;2023-02-04T00:19:48;103506.87;;;17.42;44.10
49063;BME280;34876;51.464;-0.150;2023-02-04T00:26:50;103503.62;;;17.42;44.11
49063;BME280;34876;51.464;-0.150;2023-02-04T00:33:56;103511.69;;;17.41;44.10
49063;BME280;34876;51.464;-0.150;2023-02-04T00:42:01;103512.07;;;17.42;44.06
49063;BME280;34876;51.464;-0.150;2023-02-04T00:48:25;103517.67;;;17.41;44.08
49063;BME280;34876;51.464;-0.150;2023-02-04T00:56:01;103513.65;;;17.40;44.06
49063;BME280;34876;51.464;-0.150;2023-02-04T01:03:41;103525.57;;;17.47;44.13
49063;BME280;34876;51.464;-0.150;2023-02-04T01:06:10;103520.88;;;17.46;44.18
49063;BME280;34876;51.464;-0.150;2023-02-04T01:08:41;103519.18;;;17.48;44.11
49063;BME280;34876;51.464;-0.150;2023-02-04T01:11:11;103525.46;;;17.47;44.01
49063;BME280;34876;51.464;-0.150;2023-02-04T01:13:41;103527.40;;;17.49;43.93
49063;BME280;34876;51.464;-0.150;2023-02-04T01:16:11;103531.15;;;17.49;43.95
49063;BME280;34876;51.464;-0.150;2023-02-04T01:18:41;103534.39;;;17.50;43.88
49063;BME280;34876;51.464;-0.150;2023-02-04T01:21:09;103537.91;;;17.51;43.91
49063;BME280;34876;51.464;-0.150;2023-02-04T01:23:39;103534.21;;;17.52;43.82
49063;BME280;34876;51.464;-0.150;2023-02-04T01:26:08;103533.04;;;17.51;43.85
49063;BME280;34876;51.464;-0.150;2023-02-04T01:28:38;103534.16;;;17.50;43.89
49063;BME280;34876;51.464;-0.150;2023-02-04T01:31:07;103540.09;;;17.51;43.85
49063;BME280;34876;51.464;-0.150;2023-02-04T01:33:36;103541.93;;;17.52;43.82
49063;BME280;34876;51.464;-0.150;2023-02-04T01:36:07;103543.14;;;17.54;43.78
49063;BME280;34876;51.464;-0.150;2023-02-04T01:38:36;103546.23;;;17.52;43.81
49063;BME280;34876;51.464;-0.150;2023-02-04T01:41:05;103542.14;;;17.53;43.77
49063;BME280;34876;51.464;-0.150;2023-02-04T01:43:35;103544.88;;;17.54;43.77
49063;BME280;34876;51.464;-0.150;2023-02-04T01:46:06;103544.33;;;17.52;43.79
49063;BME280;34876;51.464;-0.150;2023-02-04T01:48:36;103552.94;;;17.53;43.76
49063;BME280;34876;51.464;-0.150;2023-02-04T01:51:07;103552.54;;;17.54;43.75
49063;BME280;34876;51.464;-0.150;2023-02-04T01:53:38;103555.29;;;17.53;43.75
49063;BME280;34876;51.464;-0.150;2023-02-04T01:56:14;103554.47;;;17.58;43.65
49063;BME280;34876;51.464;-0.150;2023-02-04T01:58:52;103552.20;;;17.54;43.74
49063;BME280;34876;51.464;-0.150;2023-02-04T02:01:39;103552.86;;;17.56;43.72
49063;BME280;34876;51.464;-0.150;2023-02-04T02:04:09;103553.26;;;17.55;43.72
49063;BME280;34876;51.464;-0.150;2023-02-04T02:06:41;103554.39;;;17.54;43.78
49063;BME280;34876;51.464;-0.150;2023-02-04T02:09:12;103552.66;;;17.53;43.79
49063;BME280;34876;51.464;-0.150;2023-02-04T02:11:41;103552.87;;;17.55;43.75
49063;BME280;34876;51.464;-0.150;2023-02-04T02:14:10;103553.54;;;17.54;43.75
49063;BME280;34876;51.464;-0.150;2023-02-04T02:16:41;103553.73;;;17.52;43.83
49063;BME280;34876;51.464;-0.150;2023-02-04T02:19:12;103551.76;;;17.54;43.79
49063;BME280;34876;51.464;-0.150;2023-02-04T02:21:48;103554.79;;;17.53;43.79
49063;BME280;34876;51.464;-0.150;2023-02-04T02:24:28;103554.39;;;17.53;43.81
49063;BME280;34876;51.464;-0.150;2023-02-04T02:27:00;103555.73;;;17.54;43.82
49063;BME280;34876;51.464;-0.150;2023-02-04T02:29:31;103549.80;;;17.54;43.79
49063;BME280;34876;51.464;-0.150;2023-02-04T02:32:00;103550.85;;;17.55;43.75
49063;BME280;34876;51.464;-0.150;2023-02-04T02:34:31;103555.61;;;17.55;43.73
49063;BME280;34876;51.464;-0.150;2023-02-04T02:37:01;103554.28;;;17.53;43.80
49063;BME280;34876;51.464;-0.150;2023-02-04T02:39:31;103554.17;;;17.53;43.81
49063;BME280;34876;51.464;-0.150;2023-02-04T02:42:01;103548.69;;;17.52;43.82
49063;BME280;34876;51.464;-0.150;2023-02-04T02:44:31;103550.04;;;17.52;43.85
49063;BME280;34876;51.464;-0.150;2023-02-04T02:47:01;103546.06;;;17.52;43.87
49063;BME280;34876;51.464;-0.150;2023-02-04T02:49:31;103542.31;;;17.53;43.82
49063;BME280;34876;51.464;-0.150;2023-02-04T02:52:01;103543.72;;;17.51;43.89
49063;BME280;34876;51.464;-0.150;2023-02-04T02:54:31;103544.01;;;17.51;43.88
49063;BME280;34876;51.464;-0.150;2023-02-04T02:57:00;103543.66;;;17.51;43.85
49063;BME280;34876;51.464;-0.150;2023-02-04T02:59:29;103546.39;;;17.53;43.83
49063;BME280;34876;51.464;-0.150;2023-02-04T03:02:00;103545.62;;;17.51;43.90
49063;BME280;34876;51.464;-0.150;2023-02-04T03:04:33;103545.00;;;17.53;43.85
49063;BME280;34876;51.464;-0.150;2023-02-04T03:07:04;103543.05;;;17.52;43.90
49063;BME280;34876;51.464;-0.150;2023-02-04T03:09:34;103540.93;;;17.51;43.90
49063;BME280;34876;51.464;-0.150;2023-02-04T03:12:04;103542.54;;;17.52;43.87
49063;BME280;34876;51.464;-0.150;2023-02-04T03:14:34;103536.33;;;17.52;43.89
49063;BME280;34876;51.464;-0.150;2023-02-04T03:17:06;103533.10;;;17.50;43.91
49063;BME280;34876;51.464;-0.150;2023-02-04T03:19:37;103528.85;;;17.49;43.93
49063;BME280;34876;51.464;-0.150;2023-02-04T03:22:07;103523.70;;;17.50;43.96
49063;BME280;34876;51.464;-0.150;2023-02-04T03:24:36;103526.33;;;17.50;43.91
49063;BME280;34876;51.464;-0.150;2023-02-04T03:27:06;103529.69;;;17.50;43.91
49063;BME280;34876;51.464;-0.150;2023-02-04T03:29:41;103529.52;;;17.50;43.91
49063;BME280;34876;51.464;-0.150;2023-02-04T03:32:09;103527.60;;;17.52;43.88
49063;BME280;34876;51.464;-0.150;2023-02-04T03:34:38;103526.12;;;17.49;43.96
49063;BME280;34876;51.464;-0.150;2023-02-04T03:37:08;103526.24;;;17.48;43.96
49063;BME280;34876;51.464;-0.150;2023-02-04T03:39:37;103522.53;;;17.42;44.11
49063;BME280;34876;51.464;-0.150;2023-02-04T03:42:06;103515.34;;;17.47;43.99
49063;BME280;34876;51.464;-0.150;2023-02-04T03:44:35;103520.53;;;17.48;43.98
49063;BME280;34876;51.464;-0.150;2023-02-04T03:47:06;103520.32;;;17.46;44.00
49063;BME280;34876;51.464;-0.150;2023-02-04T03:49:35;103520.53;;;17.48;43.93
49063;BME280;34876;51.464;-0.150;2023-02-04T03:52:04;103525.85;;;17.47;43.99
49063;BME280;34876;51.464;-0.150;2023-02-04T03:54:34;103524.44;;;17.49;43.90
49063;BME280;34876;51.464;-0.150;2023-02-04T03:57:03;103529.43;;;17.47;43.97
49063;BME280;34876;51.464;-0.150;2023-02-04T03:59:32;103531.95;;;17.47;43.95
49063;BME280;34876;51.464;-0.150;2023-02-04T04:02:02;103527.63;;;17.48;43.93
49063;BME280;34876;51.464;-0.150;2023-02-04T04:04:30;103526.24;;;17.48;43.99
49063;BME280;34876;51.464;-0.150;2023-02-04T04:06:59;103526.70;;;17.46;43.99
49063;BME280;34876;51.464;-0.150;2023-02-04T04:09:29;103525.35;;;17.47;43.96
49063;BME280;34876;51.464;-0.150;2023-02-04T04:11:59;103523.56;;;17.47;43.99
49063;BME280;34876;51.464;-0.150;2023-02-04T04:14:28;103526.81;;;17.46;43.97
49063;BME280;34876;51.464;-0.150;2023-02-04T04:16:57;103533.80;;;17.47;43.97
49063;BME280;34876;51.464;-0.150;2023-02-04T04:19:26;103537.32;;;17.47;43.97
49063;BME280;34876;51.464;-0.150;2023-02-04T04:21:55;103542.97;;;17.47;43.99
49063;BME280;34876;51.464;-0.150;2023-02-04T04:24:24;103543.04;;;17.45;44.02
49063;BME280;34876;51.464;-0.150;2023-02-04T04:26:53;103544.99;;;17.47;43.98
49063;BME280;34876;51.464;-0.150;2023-02-04T04:29:22;103548.63;;;17.46;44.03
49063;BME280;34876;51.464;-0.150;2023-02-04T04:31:52;103551.45;;;17.43;44.28
49063;BME280;34876;51.464;-0.150;2023-02-04T04:34:21;103547.59;;;17.42;44.09
49063;BME280;34876;51.464;-0.150;2023-02-04T04:36:50;103545.51;;;17.44;44.07
49063;BME280;34876;51.464;-0.150;2023-02-04T04:39:19;103547.76;;;17.43;44.10
49063;BME280;34876;51.464;-0.150;2023-02-04T04:41:48;103554.46;;;17.44;44.08
49063;BME280;34876;51.464;-0.150;2023-02-04T04:44:18;103556.57;;;17.46;44.02
49063;BME280;34876;51.464;-0.150;2023-02-04T04:46:48;103556.17;;;17.47;43.99
49063;BME280;34876;51.464;-0.150;2023-02-04T04:49:17;103559.72;;;17.44;44.05
49063;BME280;34876;51.464;-0.150;2023-02-04T04:51:47;103560.57;;;17.43;44.11
49063;BME280;34876;51.464;-0.150;2023-02-04T04:54:17;103559.62;;;17.43;44.11
49063;BME280;34876;51.464;-0.150;2023-02-04T04:56:47;103564.33;;;17.41;44.92
49063;BME280;34876;51.464;-0.150;2023-02-04T04:59:16;103566.45;;;17.41;44.13
49063;BME280;34876;51.464;-0.150;2023-02-04T05:01:45;103568.81;;;17.41;44.15
49063;BME280;34876;51.464;-0.150;2023-02-04T05:04:14;103573.05;;;17.41;44.15
49063;BME280;34876;51.464;-0.150;2023-02-04T05:06:44;103575.06;;;17.42;44.12
49063;BME280;34876;51.464;-0.150;2023-02-04T05:09:13;103577.13;;;17.42;44.12
49063;BME280;34876;51.464;-0.150;2023-02-04T05:11:42;103576.06;;;17.43;44.10
49063;BME280;34876;51.464;-0.150;2023-02-04T05:14:11;103572.64;;;17.44;44.09
49063;BME280;34876;51.464;-0.150;2023-02-04T05:16:40;103572.37;;;17.44;44.08
49063;BME280;34876;51.464;-0.150;2023-02-04T05:19:09;103573.94;;;17.43;44.08
49063;BME280;34876;51.464;-0.150;2023-02-04T05:21:38;103575.11;;;17.44;44.08
49063;BME280;34876;51.464;-0.150;2023-02-04T05:24:07;103574.04;;;17.44;44.07
49063;BME280;34876;51.464;-0.150;2023-02-04T05:26:36;103571.53;;;17.43;44.10
49063;BME280;34876;51.464;-0.150;2023-02-04T05:29:05;103572.81;;;17.44;44.08
49063;BME280;34876;51.464;-0.150;2023-02-04T05:31:33;103578.41;;;17.43;44.15
49063;BME280;34876;51.464;-0.150;2023-02-04T05:34:04;103579.40;;;17.45;44.03
49063;BME280;34876;51.464;-0.150;2023-02-04T05:36:33;103580.15;;;17.43;44.11
49063;BME280;34876;51.464;-0.150;2023-02-04T05:39:03;103583.67;;;17.43;44.06
49063;BME280;34876;51.464;-0.150;2023-02-04T05:41:31;103586.63;;;17.44;44.09
49063;BME280;34876;51.464;-0.150;2023-02-04T05:44:01;103589.47;;;17.45;44.10
49063;BME280;34876;51.464;-0.150;2023-02-04T05:46:31;103587.91;;;17.45;44.04
49063;BME280;34876;51.464;-0.150;2023-02-04T05:49:00;103588.75;;;17.44;44.05
49063;BME280;34876;51.464;-0.150;2023-02-04T05:51:34;103591.77;;;17.46;44.04
49063;BME280;34876;51.464;-0.150;2023-02-04T05:54:03;103591.67;;;17.44;44.09
49063;BME280;34876;51.464;-0.150;2023-02-04T05:56:32;103594.29;;;17.44;44.05
49063;BME280;34876;51.464;-0.150;2023-02-04T05:59:01;103590.53;;;17.46;44.03
49063;BME280;34876;51.464;-0.150;2023-02-04T06:01:30;103594.30;;;17.44;44.08
49063;BME280;34876;51.464;-0.150;2023-02-04T06:04:00;103594.63;;;17.44;44.08
49063;BME280;34876;51.464;-0.150;2023-02-04T06:06:31;103597.41;;;17.46;44.00
49063;BME280;34876;51.464;-0.150;2023-02-04T06:09:00;103596.74;;;17.46;44.00
49063;BME280;34876;51.464;-0.150;2023-02-04T06:11:29;103595.79;;;17.46;44.02
49063;BME280;34876;51.464;-0.150;2023-02-04T06:13:58;103593.89;;;17.45;44.04
49063;BME280;34876;51.464;-0.150;2023-02-04T06:16:28;103597.42;;;17.45;44.04
49063;BME280;34876;51.464;-0.150;2023-02-04T06:18:57;103597.31;;;17.45;44.03
49063;BME280;34876;51.464;-0.150;2023-02-04T06:21:27;103598.88;;;17.44;44.05
49063;BME280;34876;51.464;-0.150;2023-02-04T06:23:56;103599.04;;;17.45;44.03
49063;BME280;34876;51.464;-0.150;2023-02-04T06:26:25;103603.35;;;17.45;44.04
49063;BME280;34876;51.464;-0.150;2023-02-04T06:28:54;103604.92;;;17.45;44.05
49063;BME280;34876;51.464;-0.150;2023-02-04T06:31:23;103605.70;;;17.45;44.03
49063;BME280;34876;51.464;-0.150;2023-02-04T06:33:51;103611.56;;;17.47;43.98
49063;BME280;34876;51.464;-0.150;2023-02-04T06:36:20;103613.52;;;17.46;43.98
49063;BME280;34876;51.464;-0.150;2023-02-04T06:38:49;103614.02;;;17.47;43.95
49063;BME280;34876;51.464;-0.150;2023-02-04T06:41:18;103622.19;;;17.46;44.01
49063;BME280;34876;51.464;-0.150;2023-02-04T06:43:47;103625.27;;;17.47;43.96
49063;BME280;34876;51.464;-0.150;2023-02-04T06:46:16;103628.14;;;17.44;44.05
49063;BME280;34876;51.464;-0.150;2023-02-04T06:48:45;103629.97;;;17.47;44.00
49063;BME280;34876;51.464;-0.150;2023-02-04T06:51:14;103626.83;;;17.48;43.96
49063;BME280;34876;51.464;-0.150;2023-02-04T06:53:42;103631.98;;;17.27;44.47
49063;BME280;34876;51.464;-0.150;2023-02-04T06:56:12;103636.55;;;17.42;44.12
49063;BME280;34876;51.464;-0.150;2023-02-04T06:58:40;103636.24;;;17.45;44.02
49063;BME280;34876;51.464;-0.150;2023-02-04T07:01:09;103631.36;;;17.48;43.95
49063;BME280;34876;51.464;-0.150;2023-02-04T07:03:39;103631.93;;;17.36;44.27
49063;BME280;34876;51.464;-0.150;2023-02-04T07:06:07;103631.38;;;17.45;44.00
49063;BME280;34876;51.464;-0.150;2023-02-04T07:08:36;103634.12;;;17.46;44.00
49063;BME280;34876;51.464;-0.150;2023-02-04T07:11:05;103636.93;;;17.43;44.07
49063;BME280;34876;51.464;-0.150;2023-02-04T07:13:35;103636.74;;;17.47;43.98
49063;BME280;34876;51.464;-0.150;2023-02-04T07:16:04;103637.15;;;17.44;44.01
49063;BME280;34876;51.464;-0.150;2023-02-04T07:18:34;103631.82;;;17.47;43.96
49063;BME280;34876;51.464;-0.150;2023-02-04T07:21:04;103631.49;;;17.45;43.99
49063;BME280;34876;51.464;-0.150;2023-02-04T07:23:33;103630.04;;;17.45;43.98
49063;BME280;34876;51.464;-0.150;2023-02-04T07:26:03;103635.90;;;17.46;43.96
49063;BME280;34876;51.464;-0.150;2023-02-04T07:28:33;103642.78;;;17.48;43.89
49063;BME280;34876;51.464;-0.150;2023-02-04T07:31:03;103646.55;;;17.44;43.97
49063;BME280;34876;51.464;-0.150;2023-02-04T07:33:32;103647.16;;;17.44;43.98
49063;BME280;34876;51.464;-0.150;2023-02-04T07:36:01;103643.01;;;17.45;43.95
49063;BME280;34876;51.464;-0.150;2023-02-04T07:38:31;103642.29;;;17.44;43.99
49063;BME280;34876;51.464;-0.150;2023-02-04T07:41:01;103645.14;;;17.45;43.96
49063;BME280;34876;51.464;-0.150;2023-02-04T07:43:29;103648.56;;;17.45;43.99
49063;BME280;34876;51.464;-0.150;2023-02-04T07:45:58;103649.05;;;17.45;43.93
49063;BME280;34876;51.464;-0.150;2023-02-04T07:48:27;103654.87;;;17.46;43.92
49063;BME280;34876;51.464;-0.150;2023-02-04T07:51:01;103660.02;;;17.45;43.91
49063;BME280;34876;51.464;-0.150;2023-02-04T07:53:31;103662.43;;;17.45;43.88
49063;BME280;34876;51.464;-0.150;2023-02-04T07:55:59;103665.96;;;17.44;43.93
49063;BME280;34876;51.464;-0.150;2023-02-04T07:58:29;103666.86;;;17.43;43.99
49063;BME280;34876;51.464;-0.150;2023-02-04T08:00:58;103668.03;;;17.44;43.97
49063;BME280;34876;51.464;-0.150;2023-02-04T08:03:27;103668.25;;;17.45;43.91
49063;BME280;34876;51.464;-0.150;2023-02-04T08:05:56;103672.10;;;17.46;43.91
49063;BME280;34876;51.464;-0.150;2023-02-04T08:08:25;103678.15;;;17.46;43.90
49063;BME280;34876;51.464;-0.150;2023-02-04T08:10:54;103681.78;;;17.47;43.90
49063;BME280;34876;51.464;-0.150;2023-02-04T08:13:23;103683.23;;;17.46;43.87
49063;BME280;34876;51.464;-0.150;2023-02-04T08:15:53;103682.06;;;17.45;43.86
49063;BME280;34876;51.464;-0.150;2023-02-04T08:18:22;103688.04;;;17.47;43.84
49063;BME280;34876;51.464;-0.150;2023-02-04T08:20:51;103690.96;;;17.45;43.84
49063;BME280;34876;51.464;-0.150;2023-02-04T08:23:21;103689.79;;;17.45;43.85
49063;BME280;34876;51.464;-0.150;2023-02-04T08:25:49;103691.07;;;17.46;43.87
49063;BME280;34876;51.464;-0.150;2023-02-04T08:28:19;103692.53;;;17.44;43.93
49063;BME280;34876;51.464;-0.150;2023-02-04T08:30:48;103698.57;;;17.45;43.86
49063;BME280;34876;51.464;-0.150;2023-02-04T08:33:17;103702.70;;;17.47;43.79
49063;BME280;34876;51.464;-0.150;2023-02-04T08:35:47;103704.16;;;17.45;43.85
49063;BME280;34876;51.464;-0.150;2023-02-04T08:38:15;103704.61;;;17.33;44.16
49063;BME280;34876;51.464;-0.150;2023-02-04T08:40:44;103708.87;;;17.45;43.90
49063;BME280;34876;51.464;-0.150;2023-02-04T08:43:13;103712.05;;;17.46;43.79
49063;BME280;34876;51.464;-0.150;2023-02-04T08:45:42;103715.97;;;17.45;43.87
49063;BME280;34876;51.464;-0.150;2023-02-04T08:48:11;103719.05;;;17.44;43.86
49063;BME280;34876;51.464;-0.150;2023-02-04T08:50:41;103719.72;;;17.45;43.89
49063;BME280;34876;51.464;-0.150;2023-02-04T08:53:10;103719.50;;;17.44;43.85
49063;BME280;34876;51.464;-0.150;2023-02-04T08:55:39;103721.29;;;17.43;43.89
49063;BME280;34876;51.464;-0.150;2023-02-04T08:58:09;103724.31;;;17.43;43.93
49063;BME280;34876;51.464;-0.150;2023-02-04T09:00:38;103725.32;;;17.44;43.85
49063;BME280;34876;51.464;-0.150;2023-02-04T09:03:07;103725.60;;;17.43;43.87
49063;BME280;34876;51.464;-0.150;2023-02-04T09:05:36;103727.01;;;17.41;43.90
49063;BME280;34876;51.464;-0.150;2023-02-04T09:08:05;103729.24;;;17.41;43.92
49063;BME280;34876;51.464;-0.150;2023-02-04T09:10:35;103729.12;;;17.43;43.91
49063;BME280;34876;51.464;-0.150;2023-02-04T09:13:04;103730.53;;;17.42;43.87
49063;BME280;34876;51.464;-0.150;2023-02-04T09:15:38;103732.70;;;17.31;44.19
49063;BME280;34876;51.464;-0.150;2023-02-04T09:18:07;103735.45;;;17.43;43.85
49063;BME280;34876;51.464;-0.150;2023-02-04T09:20:37;103738.41;;;17.42;43.92
49063;BME280;34876;51.464;-0.150;2023-02-04T09:23:06;103741.15;;;17.43;43.85
49063;BME280;34876;51.464;-0.150;2023-02-04T09:25:35;103740.14;;;17.44;43.82
49063;BME280;34876;51.464;-0.150;2023-02-04T09:28:04;103739.75;;;17.44;43.81
49063;BME280;34876;51.464;-0.150;2023-02-04T09:30:34;103737.50;;;17.46;43.78
49063;BME280;34876;51.464;-0.150;2023-02-04T09:33:03;103733.02;;;17.47;43.75
49063;BME280;34876;51.464;-0.150;2023-02-04T09:35:34;103730.79;;;17.47;43.85
49063;BME280;34876;51.464;-0.150;2023-02-04T09:38:03;103731.34;;;17.48;43.66
49063;BME280;34876;51.464;-0.150;2023-02-04T09:40:36;103728.87;;;17.49;43.70
49063;BME280;34876;51.464;-0.150;2023-02-04T09:43:05;103729.95;;;17.45;43.91
49063;BME280;34876;51.464;-0.150;2023-02-04T09:45:35;103735.59;;;17.49;43.72
49063;BME280;34876;51.464;-0.150;2023-02-04T09:48:05;103737.15;;;17.50;43.70
49063;BME280;34876;51.464;-0.150;2023-02-04T09:50:35;103738.04;;;17.50;43.72
49063;BME280;34876;51.464;-0.150;2023-02-04T09:53:05;103740.49;;;17.41;43.84
49063;BME280;34876;51.464;-0.150;2023-02-04T09:55:38;103744.31;;;17.49;43.71
49063;BME280;34876;51.464;-0.150;2023-02-04T09:58:12;103747.39;;;17.50;43.64
49063;BME280;34876;51.464;-0.150;2023-02-04T10:00:44;103746.95;;;17.49;43.92
49063;BME280;34876;51.464;-0.150;2023-02-04T10:03:17;103751.42;;;17.49;43.74
49063;BME280;34876;51.464;-0.150;2023-02-04T10:05:46;103754.99;;;17.52;43.72
49063;BME280;34876;51.464;-0.150;2023-02-04T10:08:18;103756.08;;;17.46;43.92
49063;BME280;34876;51.464;-0.150;2023-02-04T10:10:48;103758.47;;;17.49;43.80
49063;BME280;34876;51.464;-0.150;2023-02-04T10:13:19;103760.42;;;17.51;43.69
49063;BME280;34876;51.464;-0.150;2023-02-04T10:15:49;103761.42;;;17.53;43.62
49063;BME280;34876;51.464;-0.150;2023-02-04T10:18:22;103761.52;;;17.55;43.56
49063;BME280;34876;51.464;-0.150;2023-02-04T10:20:55;103758.05;;;17.55;43.59
49063;BME280;34876;51.464;-0.150;2023-02-04T10:23:25;103756.88;;;17.54;43.54
49063;BME280;34876;51.464;-0.150;2023-02-04T10:25:54;103755.26;;;17.54;43.67
49063;BME280;34876;51.464;-0.150;2023-02-04T10:28:32;103760.63;;;17.54;43.55
49063;BME280;34876;51.464;-0.150;2023-02-04T10:31:02;103764.94;;;17.55;43.57
49063;BME280;34876;51.464;-0.150;2023-02-04T10:33:31;103769.08;;;17.55;43.52
49063;BME280;34876;51.464;-0.150;2023-02-04T10:36:01;103768.67;;;17.58;43.39
49063;BME280;34876;51.464;-0.150;2023-02-04T10:38:31;103769.84;;;17.59;43.37
49063;BME280;34876;51.464;-0.150;2023-02-04T10:41:01;103770.82;;;17.52;43.57
49063;BME280;34876;51.464;-0.150;2023-02-04T10:43:31;103770.86;;;17.57;43.42
49063;BME280;34876;51.464;-0.150;2023-02-04T10:46:02;103775.26;;;17.61;43.35
49063;BME280;34876;51.464;-0.150;2023-02-04T10:48:40;103773.45;;;17.65;43.23
49063;BME280;34876;51.464;-0.150;2023-02-04T10:51:10;103774.78;;;17.67;43.13
49063;BME280;34876;51.464;-0.150;2023-02-04T10:53:41;103777.13;;;17.68;43.15
49063;BME280;34876;51.464;-0.150;2023-02-04T10:56:16;103777.35;;;17.69;43.27
49063;BME280;34876;51.464;-0.150;2023-02-04T10:58:45;103782.06;;;17.67;43.41
49063;BME280;34876;51.464;-0.150;2023-02-04T11:01:16;103788.48;;;17.72;43.08
49063;BME280;34876;51.464;-0.150;2023-02-04T11:03:47;103790.77;;;17.72;43.05
49063;BME280;34876;51.464;-0.150;2023-02-04T11:06:20;103793.17;;;17.72;43.04
49063;BME280;34876;51.464;-0.150;2023-02-04T11:08:50;103787.97;;;17.72;43.13
49063;BME280;34876;51.464;-0.150;2023-02-04T11:11:21;103788.98;;;17.72;43.09
49063;BME280;34876;51.464;-0.150;2023-02-04T11:13:59;103786.39;;;17.76;42.96
49063;BME280;34876;51.464;-0.150;2023-02-04T11:16:30;103784.75;;;17.79;42.86
49063;BME280;34876;51.464;-0.150;2023-02-04T11:19:04;103784.46;;;17.80;42.86
49063;BME280;34876;51.464;-0.150;2023-02-04T11:21:43;103781.42;;;17.94;42.62
49063;BME280;34876;51.464;-0.150;2023-02-04T11:24:32;103777.25;;;17.88;42.62
49063;BME280;34876;51.464;-0.150;2023-02-04T11:27:19;103776.23;;;17.80;42.86
49063;BME280;34876;51.464;-0.150;2023-02-04T11:29:51;103774.56;;;17.68;43.22
49063;BME280;34876;51.464;-0.150;2023-02-04T11:32:32;103770.64;;;17.69;43.54
49063;BME280;34876;51.464;-0.150;2023-02-04T11:35:20;103771.49;;;17.66;43.81
49063;BME280;34876;51.464;-0.150;2023-02-04T11:37:50;103772.26;;;17.69;43.41
49063;BME280;34876;51.464;-0.150;2023-02-04T11:40:24;103770.96;;;17.72;43.25
49063;BME280;34876;51.464;-0.150;2023-02-04T11:42:57;103771.24;;;17.72;43.29
49063;BME280;34876;51.464;-0.150;2023-02-04T11:45:31;103768.80;;;17.67;43.49
49063;BME280;34876;51.464;-0.150;2023-02-04T11:48:02;103772.14;;;17.69;43.37
49063;BME280;34876;51.464;-0.150;2023-02-04T11:50:33;103771.45;;;17.15;42.25
49063;BME280;34876;51.464;-0.150;2023-02-04T11:53:03;103772.22;;;17.65;43.37
49063;BME280;34876;51.464;-0.150;2023-02-04T11:55:35;103771.49;;;17.66;43.60
49063;BME280;34876;51.464;-0.150;2023-02-04T11:58:14;103777.65;;;17.64;43.47
49063;BME280;34876;51.464;-0.150;2023-02-04T12:00:43;103779.99;;;17.66;42.47
49063;BME280;34876;51.464;-0.150;2023-02-04T12:03:23;103777.79;;;17.71;43.21
49063;BME280;34876;51.464;-0.150;2023-02-04T12:05:52;103776.89;;;17.71;43.29
49063;BME280;34876;51.464;-0.150;2023-02-04T12:08:30;103779.31;;;17.69;43.31
49063;BME280;34876;51.464;-0.150;2023-02-04T12:11:04;103780.68;;;17.63;43.48
49063;BME280;34876;51.464;-0.150;2023-02-04T12:13:44;103779.93;;;17.69;43.22
49063;BME280;34876;51.464;-0.150;2023-02-04T12:16:15;103778.99;;;17.65;43.47
49063;BME280;34876;51.464;-0.150;2023-02-04T12:18:44;103778.99;;;17.66;43.28
49063;BME280;34876;51.464;-0.150;2023-02-04T12:21:14;103778.99;;;17.65;43.63
49063;BME280;34876;51.464;-0.150;2023-02-04T12:23:48;103783.74;;;17.67;43.28
49063;BME280;34876;51.464;-0.150;2023-02-04T12:26:17;103785.64;;;17.68;43.25
49063;BME280;34876;51.464;-0.150;2023-02-04T12:28:46;103785.79;;;17.70;43.17
49063;BME280;34876;51.464;-0.150;2023-02-04T12:31:16;103783.35;;;17.66;43.35
49063;BME280;34876;51.464;-0.150;2023-02-04T12:33:45;103781.35;;;17.63;43.54
49063;BME280;34876;51.464;-0.150;2023-02-04T12:36:16;103778.88;;;17.65;43.48
49063;BME280;34876;51.464;-0.150;2023-02-04T12:38:46;103779.78;;;17.64;43.39
49063;BME280;34876;51.464;-0.150;2023-02-04T12:41:15;103782.89;;;17.68;43.18
49063;BME280;34876;51.464;-0.150;2023-02-04T12:43:45;103784.02;;;17.67;43.33
49063;BME280;34876;51.464;-0.150;2023-02-04T12:46:16;103788.63;;;17.62;43.50
49063;BME280;34876;51.464;-0.150;2023-02-04T12:48:45;103786.33;;;17.64;43.31
49063;BME280;34876;51.464;-0.150;2023-02-04T12:51:15;103785.53;;;17.68;43.18
49063;BME280;34876;51.464;-0.150;2023-02-04T12:53:44;103783.65;;;17.62;43.42
49063;BME280;34876;51.464;-0.150;2023-02-04T12:56:13;103787.86;;;17.60;43.34
49063;BME280;34876;51.464;-0.150;2023-02-04T12:58:43;103788.83;;;17.67;43.19
49063;BME280;34876;51.464;-0.150;2023-02-04T13:01:14;103788.51;;;17.65;43.23
49063;BME280;34876;51.464;-0.150;2023-02-04T13:03:43;103793.49;;;17.65;43.17
49063;BME280;34876;51.464;-0.150;2023-02-04T13:06:13;103797.69;;;17.63;43.20
49063;BME280;34876;51.464;-0.150;2023-02-04T13:08:43;103796.59;;;17.59;43.27
49063;BME280;34876;51.464;-0.150;2023-02-04T13:11:12;103801.22;;;17.63;43.37
49063;BME280;34876;51.464;-0.150;2023-02-04T13:13:40;103799.56;;;17.59;43.87
49063;BME280;34876;51.464;-0.150;2023-02-04T13:16:10;103796.53;;;17.60;43.37
49063;BME280;34876;51.464;-0.150;2023-02-04T13:18:39;103799.72;;;17.60;43.31
49063;BME280;34876;51.464;-0.150;2023-02-04T13:21:08;103797.08;;;17.62;43.31
49063;BME280;34876;51.464;-0.150;2023-02-04T13:23:38;103792.39;;;17.59;43.63
49063;BME280;34876;51.464;-0.150;2023-02-04T13:26:08;103790.21;;;17.60;43.51
49063;BME280;34876;51.464;-0.150;2023-02-04T13:28:37;103787.68;;;17.61;43.28
49063;BME280;34876;51.464;-0.150;2023-02-04T13:31:06;103786.68;;;17.59;43.31
49063;BME280;34876;51.464;-0.150;2023-02-04T13:33:35;103787.23;;;17.62;43.42
49063;BME280;34876;51.464;-0.150;2023-02-04T13:36:05;103786.46;;;17.59;43.52